Time;durP1;ratioP1;P1;durP2;ratioP2;P2;SDS_P1;SDS_P2;PMS_P1;PMS_P2;Temp;Humidity;BMP_temperature;BMP_pressure;BME280_temperature;BME280_humidity;BME280_pressure;Samples;Min_cycle;Max_cycle;Signal;HPM_P1;HPM_P2
2021/12/24 00:01:14;;;;;;;37.72;27.27;;;5.20;82.40;;;;;;4965770;28;20039;-94
2021/12/24 00:03:44;;;;;;;46.70;31.80;;;5.20;82.90;;;;;;4976720;28;20046;-93
2021/12/24 00:06:11;;;;;;;43.55;29.75;;;5.10;83.00;;;;;;4982505;28;20023;-93
2021/12/24 00:08:39;;;;;;;48.67;31.60;;;5.30;82.60;;;;;;4980443;28;20088;-94
2021/12/24 00:11:06;;;;;;;42.72;29.55;;;5.30;82.50;;;;;;4992171;28;20031;-95
2021/12/24 00:13:38;;;;;;;44.10;29.80;;;5.40;82.20;;;;;;4980812;28;20064;-94
2021/12/24 00:16:08;;;;;;;43.63;30.17;;;5.50;81.90;;;;;;4980867;28;20035;-94
2021/12/24 00:19:22;;;;;;;43.85;29.88;;;5.60;81.50;;;;;;4963604;28;20027;-94
2021/12/24 00:38:03;;;;;;;41.55;27.15;;;5.60;81.60;;;;;;4873287;29;20111;-94
2021/12/24 00:40:51;;;;;;;36.40;25.90;;;5.60;81.40;;;;;;4961901;28;20050;-94
2021/12/24 00:43:17;;;;;;;45.72;31.33;;;5.50;81.90;;;;;;4967234;28;20045;-94
2021/12/24 00:45:44;;;;;;;46.40;31.95;;;5.40;82.70;;;;;;4988046;28;20035;-94
2021/12/24 00:48:13;;;;;;;44.97;31.23;;;5.50;82.00;;;;;;4961875;28;20125;-94
2021/12/24 00:56:10;;;;;;;44.55;30.48;;;5.80;81.00;;;;;;4986259;28;20050;-94
2021/12/24 00:58:37;;;;;;;45.65;31.65;;;5.80;80.90;;;;;;4960821;28;20692;-94
2021/12/24 01:01:08;;;;;;;46.92;33.17;;;5.70;81.40;;;;;;4979085;28;20042;-94
2021/12/24 01:03:34;;;;;;;45.35;31.40;;;5.30;82.60;;;;;;4961634;28;20027;-95
2021/12/24 01:06:00;;;;;;;42.88;29.98;;;5.40;82.30;;;;;;4932496;29;20050;-94
2021/12/24 01:08:26;;;;;;;46.65;31.00;;;5.60;82.00;;;;;;4976521;28;20039;-94
2021/12/24 01:10:58;;;;;;;47.20;30.52;;;5.70;81.80;;;;;;4961610;28;20406;-93
2021/12/24 01:13:25;;;;;;;42.22;29.55;;;5.70;81.70;;;;;;4961767;28;20037;-94
2021/12/24 01:16:06;;;;;;;43.42;31.58;;;5.70;81.50;;;;;;4979518;28;20047;-93
2021/12/24 01:18:50;;;;;;;48.03;30.80;;;5.70;81.40;;;;;;4978616;28;20070;-94
2021/12/24 01:21:44;;;;;;;46.63;31.83;;;5.80;81.30;;;;;;4979458;28;20400;-94
2021/12/24 01:24:18;;;;;;;44.90;30.60;;;5.80;81.30;;;;;;4961274;28;20023;-95
2021/12/24 01:27:04;;;;;;;46.08;30.35;;;5.80;81.10;;;;;;4978842;28;20045;-95
2021/12/24 01:29:55;;;;;;;42.28;29.58;;;5.90;81.00;;;;;;4977867;28;20019;-94
2021/12/24 01:37:58;;;;;;;44.55;30.92;;;5.90;80.60;;;;;;4972267;28;20056;-95
2021/12/24 01:41:19;;;;;;;43.55;28.60;;;5.90;80.60;;;;;;4956331;28;20047;-93
2021/12/24 01:43:11;;;;;;;44.33;30.63;;;5.90;80.50;;;;;;4948478;28;20066;-93
2021/12/24 01:45:37;;;;;;;44.45;31.52;;;5.90;80.50;;;;;;4976633;28;20027;-93
2021/12/24 01:48:08;;;;;;;46.22;31.80;;;5.90;80.50;;;;;;4959067;28;20038;-93
2021/12/24 01:50:36;;;;;;;45.03;30.90;;;5.80;80.50;;;;;;4976001;28;20039;-92
2021/12/24 01:53:04;;;;;;;41.47;30.13;;;5.70;80.90;;;;;;4976938;28;20035;-93
2021/12/24 01:55:30;;;;;;;46.78;33.03;;;5.70;80.90;;;;;;4975678;28;20109;-93
2021/12/24 01:57:56;;;;;;;48.08;31.48;;;5.70;81.10;;;;;;4959645;28;20042;-93
2021/12/24 02:00:25;;;;;;;51.53;33.85;;;5.70;81.00;;;;;;4976544;28;20043;-94
2021/12/24 02:02:51;;;;;;;57.78;39.38;;;5.60;81.10;;;;;;4959914;28;20435;-93
2021/12/24 02:05:19;;;;;;;48.55;32.65;;;5.30;82.10;;;;;;4976686;28;20102;-91
2021/12/24 02:07:45;;;;;;;45.03;31.88;;;5.30;82.10;;;;;;4959988;28;20030;-93
2021/12/24 02:10:14;;;;;;;57.72;35.63;;;5.40;81.90;;;;;;4976728;28;20035;-93
2021/12/24 02:12:40;;;;;;;45.03;30.15;;;5.40;82.00;;;;;;4976995;28;20054;-94
2021/12/24 02:15:47;;;;;;;45.83;30.98;;;5.40;82.00;;;;;;4961413;28;20415;-94
2021/12/24 02:28:59;;;;;;;46.53;32.20;;;5.40;82.10;;;;;;4971069;28;20085;-94
2021/12/24 02:31:46;;;;;;;45.00;30.88;;;5.40;82.20;;;;;;4976429;28;20525;-94
2021/12/24 02:34:35;;;;;;;44.35;30.70;;;5.40;82.00;;;;;;4975174;28;20035;-94
2021/12/24 02:37:01;;;;;;;44.37;30.40;;;5.30;82.40;;;;;;4961315;28;20089;-94
2021/12/24 02:39:27;;;;;;;47.63;31.73;;;5.40;82.10;;;;;;4976237;28;20028;-94
2021/12/24 02:41:53;;;;;;;45.72;31.42;;;5.40;82.00;;;;;;4976128;28;20046;-93
2021/12/24 02:44:19;;;;;;;47.17;32.95;;;5.40;81.90;;;;;;4957993;28;20031;-95
2021/12/24 02:47:10;;;;;;;47.05;31.85;;;5.50;82.00;;;;;;4976182;28;20051;-95
2021/12/24 02:54:55;;;;;;;45.42;31.58;;;5.70;81.50;;;;;;4961672;28;20050;-94
2021/12/24 02:57:27;;;;;;;46.40;31.73;;;5.70;81.40;;;;;;4957838;28;20550;-94
2021/12/24 03:00:06;;;;;;;46.58;32.60;;;5.60;81.50;;;;;;4958305;28;20042;-92
2021/12/24 03:02:33;;;;;;;45.85;31.48;;;5.60;81.50;;;;;;4975120;28;20039;-93
2021/12/24 03:05:00;;;;;;;48.28;32.15;;;5.60;81.40;;;;;;4962642;28;20113;-92
2021/12/24 03:07:26;;;;;;;45.17;31.38;;;5.70;81.40;;;;;;4958027;28;20086;-94
2021/12/24 03:09:52;;;;;;;49.50;32.67;;;5.70;81.10;;;;;;4976025;28;20035;-93
2021/12/24 03:12:19;;;;;;;49.97;33.38;;;5.70;81.10;;;;;;4958790;28;20039;-94
2021/12/24 03:14:44;;;;;;;50.15;33.00;;;5.70;81.00;;;;;;4975911;28;20031;-94
2021/12/24 03:17:14;;;;;;;47.03;33.63;;;5.70;81.00;;;;;;4957912;28;20046;-93
2021/12/24 03:19:40;;;;;;;50.70;32.85;;;5.70;80.80;;;;;;4975453;28;20050;-94
2021/12/24 03:24:39;;;;;;;44.95;32.72;;;5.70;80.80;;;;;;4980764;28;20022;-93
2021/12/24 03:27:07;;;;;;;50.53;34.38;;;5.60;81.00;;;;;;4998824;28;20034;-94
2021/12/24 03:29:33;;;;;;;49.05;33.35;;;5.60;81.00;;;;;;4999194;28;20030;-93
2021/12/24 03:31:59;;;;;;;46.60;33.03;;;5.50;81.20;;;;;;4998785;28;20047;-93
2021/12/24 03:34:26;;;;;;;50.67;34.33;;;5.20;82.40;;;;;;4997915;28;20035;-93
2021/12/24 03:36:52;;;;;;;47.80;32.80;;;5.30;82.10;;;;;;4997946;28;20026;-93
2021/12/24 03:39:18;;;;;;;51.42;33.03;;;5.30;81.90;;;;;;4984916;28;20053;-93
2021/12/24 03:41:46;;;;;;;46.03;32.35;;;5.40;82.00;;;;;;4976227;28;20047;-92
2021/12/24 03:44:14;;;;;;;49.00;33.00;;;5.30;82.10;;;;;;4976993;28;20046;-93
2021/12/24 03:46:55;;;;;;;49.30;33.17;;;5.40;82.00;;;;;;4972788;28;20037;-95
2021/12/24 03:49:33;;;;;;;;;;;5.50;81.80;;;;;;4953381;28;20035;-93
2021/12/24 03:52:15;;;;;;;46.80;30.48;;;5.50;81.60;;;;;;4975725;28;20004;-94
2021/12/24 03:55:00;;;;;;;54.90;37.42;;;5.50;81.50;;;;;;4958649;28;20039;-93
2021/12/24 03:57:41;;;;;;;45.28;30.23;;;5.40;81.40;;;;;;4975647;28;20137;-94
2021/12/24 04:00:24;;;;;;;44.53;31.88;;;5.20;82.10;;;;;;4958732;28;20050;-94
2021/12/24 04:02:50;;;;;;;43.80;30.17;;;5.20;82.20;;;;;;4959525;28;20387;-91
2021/12/24 04:05:16;;;;;;;45.72;32.83;;;5.20;82.20;;;;;;4958331;28;20046;-95
2021/12/24 04:07:42;;;;;;;47.85;32.67;;;5.30;82.20;;;;;;4977884;28;20372;-95
2021/12/24 04:10:30;;;;;;;50.83;34.85;;;5.30;82.00;;;;;;4958652;28;20047;-94
2021/12/24 04:12:56;;;;;;;45.53;32.42;;;5.30;82.00;;;;;;4958179;28;20042;-93
2021/12/24 04:15:22;;;;;;;46.63;32.55;;;5.20;82.20;;;;;;4958753;28;20050;-93
2021/12/24 04:17:49;;;;;;;49.05;33.35;;;5.30;82.20;;;;;;4978711;28;20039;-94
2021/12/24 04:25:49;;;;;;;51.17;33.33;;;5.10;83.00;;;;;;4991059;28;20061;-95
2021/12/24 04:28:17;;;;;;;51.20;32.85;;;5.20;82.90;;;;;;4974349;28;20035;-93
2021/12/24 04:30:51;;;;;;;46.80;33.55;;;5.30;82.60;;;;;;4970052;28;20514;-95
2021/12/24 04:33:25;;;;;;;47.10;32.83;;;5.40;82.70;;;;;;4960600;28;20090;-94
2021/12/24 04:39:02;;;;;;;49.53;33.17;;;5.30;81.90;;;;;;4975947;28;20041;-94
2021/12/24 05:11:15;;;;;;;49.88;32.45;;;5.30;81.50;;;;;;4977966;28;20039;-94
2021/12/24 05:13:41;;;;;;;47.80;32.80;;;5.40;81.60;;;;;;4975935;28;20031;-94
2021/12/24 05:16:24;;;;;;;46.80;31.67;;;5.30;81.70;;;;;;4979700;28;20050;-94
2021/12/24 05:21:33;;;;;;;46.58;31.60;;;5.30;81.70;;;;;;4959992;28;20042;-93
2021/12/24 05:21:54;;;;;;;60.28;32.72;;;5.40;81.70;;;;;;4965789;28;20082;-96
2021/12/24 05:24:22;;;;;;;46.88;32.45;;;5.40;81.30;;;;;;4979448;28;20066;-94
2021/12/24 05:26:52;;;;;;;46.33;33.25;;;5.30;81.40;;;;;;4978237;28;20061;-95
2021/12/24 05:29:25;;;;;;;45.78;32.60;;;5.30;81.50;;;;;;4977758;28;20027;-95
2021/12/24 05:31:51;;;;;;;47.22;34.20;;;5.30;81.50;;;;;;4978699;28;20093;-95
2021/12/24 05:34:18;;;;;;;57.72;37.88;;;5.30;81.50;;;;;;4961652;28;20070;-94
2021/12/24 05:36:58;;;;;;;51.17;34.28;;;5.20;81.60;;;;;;4978338;28;20122;-95
2021/12/24 05:39:24;;;;;;;48.53;34.95;;;5.00;82.50;;;;;;4961373;28;22724;-95
2021/12/24 05:41:50;;;;;;;49.63;34.72;;;4.90;82.70;;;;;;4978866;23;20026;-79
2021/12/24 05:44:17;;;;;;;46.53;31.23;;;5.00;82.70;;;;;;4969689;28;20485;-80
2021/12/24 05:46:45;;;;;;;59.30;38.22;;;5.00;82.50;;;;;;4958936;28;20039;-79
2021/12/24 05:49:11;;;;;;;56.28;36.38;;;5.10;82.40;;;;;;4959277;28;20106;-80
2021/12/24 05:51:36;;;;;;;48.78;34.38;;;4.80;83.40;;;;;;4955977;29;20062;-79
2021/12/24 05:54:04;;;;;;;46.50;31.83;;;4.90;83.70;;;;;;4957309;28;20035;-79
2021/12/24 05:56:30;;;;;;;48.30;35.88;;;4.90;83.00;;;;;;4955931;28;20028;-79
2021/12/24 05:58:56;;;;;;;48.70;33.92;;;4.70;83.60;;;;;;4954900;28;20138;-76
2021/12/24 06:01:23;;;;;;;46.90;33.13;;;4.80;83.20;;;;;;4957455;28;20043;-76
2021/12/24 06:03:49;;;;;;;55.03;37.40;;;4.90;82.90;;;;;;4952260;28;20040;-76
2021/12/24 06:06:15;;;;;;;57.85;39.88;;;4.80;82.70;;;;;;4956766;28;20411;-76
2021/12/24 06:08:40;;;;;;;49.08;32.45;;;4.80;82.90;;;;;;4957303;29;20031;-77
2021/12/24 06:11:06;;;;;;;48.65;33.75;;;4.90;82.80;;;;;;4957112;29;20503;-78
2021/12/24 06:13:33;;;;;;;47.03;33.20;;;5.00;82.60;;;;;;4958794;28;20043;-78
2021/12/24 06:15:58;;;;;;;46.55;32.20;;;5.10;82.00;;;;;;4955213;29;20066;-78
2021/12/24 06:18:27;;;;;;;59.10;39.75;;;5.00;81.90;;;;;;4954912;28;20039;-77
2021/12/24 06:20:55;;;;;;;43.88;31.40;;;5.00;81.60;;;;;;4953941;28;20562;-77
2021/12/24 06:23:23;;;;;;;49.05;33.72;;;4.90;82.00;;;;;;4957858;28;20039;-78
2021/12/24 06:25:51;;;;;;;51.20;36.97;;;4.90;81.90;;;;;;4964538;28;20383;-78
2021/12/24 06:28:17;;;;;;;51.40;36.33;;;4.90;81.60;;;;;;4954787;29;20085;-77
2021/12/24 06:30:43;;;;;;;48.00;32.17;;;4.90;81.70;;;;;;4955838;28;20171;-77
2021/12/24 06:33:09;;;;;;;49.97;36.33;;;4.90;81.70;;;;;;4956079;28;20130;-78
2021/12/24 06:35:36;;;;;;;40.45;29.02;;;4.80;81.60;;;;;;4965967;28;20121;-78
2021/12/24 06:38:02;;;;;;;52.00;35.35;;;4.80;81.90;;;;;;4954477;29;20058;-78
2021/12/24 06:40:28;;;;;;;52.03;36.65;;;4.80;81.80;;;;;;4963588;28;20403;-77
2021/12/24 06:42:54;;;;;;;46.20;31.13;;;4.70;82.00;;;;;;4953517;28;20055;-77
2021/12/24 06:45:24;;;;;;;47.78;32.38;;;4.70;82.40;;;;;;4959242;28;20038;-77
2021/12/24 06:47:51;;;;;;;44.60;30.77;;;4.80;82.30;;;;;;4953400;28;20039;-77
2021/12/24 06:50:17;;;;;;;59.85;33.22;;;4.90;82.10;;;;;;4965904;28;20035;-77
2021/12/24 06:52:43;;;;;;;49.72;35.50;;;5.00;81.70;;;;;;4956715;28;20547;-77
2021/12/24 06:55:10;;;;;;;48.28;32.95;;;5.00;81.50;;;;;;4965238;28;20043;-78
2021/12/24 06:57:40;;;;;;;41.13;30.23;;;4.90;81.70;;;;;;4962070;28;20034;-77
2021/12/24 07:00:08;;;;;;;42.92;29.83;;;4.90;81.80;;;;;;4963062;28;20125;-77
2021/12/24 07:02:34;;;;;;;44.90;31.30;;;4.90;81.80;;;;;;4963976;28;20138;-77
2021/12/24 07:05:00;;;;;;;43.20;29.77;;;5.00;81.60;;;;;;4958235;28;20110;-77
2021/12/24 07:07:25;;;;;;;41.42;29.08;;;5.10;81.40;;;;;;4964915;28;20035;-77
2021/12/24 07:09:51;;;;;;;39.28;28.73;;;5.10;81.30;;;;;;4962067;28;20035;-76
2021/12/24 07:12:17;;;;;;;53.15;36.28;;;5.00;81.30;;;;;;4961295;28;20122;-76
2021/12/24 07:14:43;;;;;;;48.75;32.65;;;5.00;81.10;;;;;;4954411;28;20126;-76
2021/12/24 07:17:10;;;;;;;49.10;34.03;;;5.00;81.30;;;;;;4958451;28;20407;-75
2021/12/24 07:19:36;;;;;;;46.08;31.35;;;4.90;83.90;;;;;;4967051;28;20045;-76
2021/12/24 07:22:02;;;;;;;43.60;30.10;;;4.90;82.40;;;;;;4965896;28;20046;-76
2021/12/24 07:24:28;;;;;;;42.03;30.38;;;5.00;82.10;;;;;;4959857;28;20554;-76
2021/12/24 07:26:53;;;;;;;46.85;31.63;;;5.20;81.80;;;;;;4971160;28;20042;-77
2021/12/24 07:29:19;;;;;;;43.80;31.38;;;5.20;81.40;;;;;;4952255;28;20047;-77
2021/12/24 07:31:44;;;;;;;55.33;36.10;;;5.20;81.10;;;;;;4956393;28;20046;-77
2021/12/24 07:34:10;;;;;;;45.15;32.22;;;5.30;82.10;;;;;;4962591;28;20491;-77
2021/12/24 07:36:36;;;;;;;44.50;31.67;;;5.40;81.40;;;;;;4955587;28;20039;-81
2021/12/24 07:39:02;;;;;;;49.00;33.90;;;5.50;80.40;;;;;;4955529;28;20039;-80
2021/12/24 07:41:28;;;;;;;51.00;34.90;;;5.40;80.40;;;;;;4960432;28;20043;-80
2021/12/24 07:43:55;;;;;;;55.53;40.50;;;5.50;80.10;;;;;;4965958;28;20039;-76
2021/12/24 07:46:23;;;;;;;48.30;32.78;;;5.40;79.40;;;;;;4954321;28;20034;-76
2021/12/24 07:48:49;;;;;;;45.35;33.03;;;5.30;80.20;;;;;;4952527;29;20058;-80
2021/12/24 07:54:02;;;;;;;44.47;31.33;;;5.30;80.50;;;;;;4954089;28;20054;-80
2021/12/24 07:56:32;;;;;;;54.63;38.40;;;5.40;80.40;;;;;;4953764;28;20055;-80
2021/12/24 07:58:58;;;;;;;39.60;29.63;;;5.30;79.10;;;;;;4954707;28;20508;-80
2021/12/24 08:01:25;;;;;;;43.60;33.10;;;5.40;79.80;;;;;;4954829;28;20110;-81
2021/12/24 08:03:55;;;;;;;42.05;31.48;;;5.50;79.70;;;;;;4959748;28;20037;-81
2021/12/24 08:06:24;;;;;;;48.63;33.30;;;5.50;79.20;;;;;;4955422;28;20110;-84
2021/12/24 08:08:50;;;;;;;42.17;31.63;;;5.50;79.00;;;;;;4954579;29;20031;-84
2021/12/24 08:11:16;;;;;;;51.30;35.13;;;5.60;79.10;;;;;;4954378;28;20039;-84
2021/12/24 08:13:42;;;;;;;42.95;31.38;;;5.60;78.70;;;;;;4954367;28;20051;-84
2021/12/24 08:16:09;;;;;;;49.85;33.17;;;5.60;78.70;;;;;;4952073;29;20046;-78
2021/12/24 08:18:36;;;;;;;44.45;31.25;;;5.60;78.40;;;;;;4954564;29;20094;-78
2021/12/24 08:21:03;;;;;;;44.85;33.15;;;5.70;78.90;;;;;;4955573;28;20042;-79
2021/12/24 08:23:29;;;;;;;47.05;31.98;;;5.70;79.00;;;;;;4960601;28;20035;-79
2021/12/24 08:25:58;;;;;;;49.08;34.97;;;5.80;78.50;;;;;;4962773;28;20054;-76
2021/12/24 08:28:25;;;;;;;46.57;32.17;;;5.80;78.20;;;;;;4952647;28;20451;-86
2021/12/24 08:30:51;;;;;;;41.53;31.65;;;5.80;78.60;;;;;;4965969;28;20094;-83
2021/12/24 08:33:16;;;;;;;42.50;32.42;;;5.90;78.70;;;;;;4964539;28;20440;-81
2021/12/24 08:35:42;;;;;;;47.35;35.30;;;6.00;78.50;;;;;;4957957;28;20043;-81
2021/12/24 08:38:08;;;;;;;46.42;32.22;;;6.00;78.00;;;;;;4962146;28;20039;-82
2021/12/24 08:40:34;;;;;;;40.35;31.10;;;6.00;78.10;;;;;;4956275;28;20171;-84
2021/12/24 08:43:00;;;;;;;50.75;37.83;;;6.10;78.00;;;;;;4967716;28;20062;-79
2021/12/24 08:45:26;;;;;;;49.17;34.55;;;6.10;76.70;;;;;;4954335;28;20035;-79
2021/12/24 08:47:52;;;;;;;50.65;33.25;;;6.00;77.60;;;;;;4956300;28;20046;-79
2021/12/24 08:50:17;;;;;;;45.20;32.90;;;6.10;77.70;;;;;;4962978;28;20074;-79
2021/12/24 08:52:45;;;;;;;44.28;31.00;;;6.20;77.70;;;;;;4968610;28;20051;-79
2021/12/24 08:55:12;;;;;;;49.28;36.20;;;6.30;77.40;;;;;;4970327;28;20457;-79
2021/12/24 08:57:40;;;;;;;48.67;35.53;;;6.20;76.20;;;;;;4963756;28;20059;-81
2021/12/24 09:00:09;;;;;;;48.00;34.35;;;6.20;76.40;;;;;;4946235;28;20135;-79
2021/12/24 09:02:36;;;;;;;45.63;33.47;;;6.10;77.10;;;;;;4970347;28;20400;-80
2021/12/24 09:05:03;;;;;;;41.00;30.70;;;6.10;76.60;;;;;;4965726;28;20094;-80
2021/12/24 09:07:29;;;;;;;37.38;28.30;;;6.10;76.60;;;;;;4953481;29;20043;-79
2021/12/24 09:09:55;;;;;;;47.22;34.22;;;6.10;76.70;;;;;;4965324;28;20545;-79
2021/12/24 09:12:20;;;;;;;50.10;35.03;;;6.10;76.40;;;;;;4956280;28;20383;-79
2021/12/24 09:14:46;;;;;;;42.67;32.08;;;6.00;76.40;;;;;;4968003;28;20086;-79
2021/12/24 09:17:12;;;;;;;41.85;29.27;;;6.10;76.80;;;;;;4957374;29;20094;-79
2021/12/24 09:19:45;;;;;;;40.70;29.15;;;6.20;77.10;;;;;;4968849;28;20034;-78
2021/12/24 09:22:16;;;;;;;39.97;28.17;;;6.20;76.20;;;;;;4960844;28;20082;-78
2021/12/24 09:24:43;;;;;;;41.22;29.92;;;6.30;76.30;;;;;;4956564;28;20122;-79
2021/12/24 09:27:09;;;;;;;39.30;30.73;;;6.40;76.20;;;;;;4958030;28;20035;-79
2021/12/24 09:29:35;;;;;;;45.08;33.17;;;6.50;76.40;;;;;;4957080;28;20126;-79
2021/12/24 09:32:01;;;;;;;43.33;32.13;;;6.60;75.60;;;;;;4958466;28;20043;-79
2021/12/24 09:34:26;;;;;;;45.17;32.35;;;6.60;75.30;;;;;;4958957;28;20542;-79
2021/12/24 09:36:52;;;;;;;43.25;32.03;;;6.70;75.80;;;;;;4957326;28;20047;-80
2021/12/24 09:39:18;;;;;;;48.05;34.78;;;6.80;75.60;;;;;;4956343;28;20047;-80
2021/12/24 09:41:44;;;;;;;46.42;31.88;;;6.80;74.90;;;;;;4951769;28;20038;-80
2021/12/24 09:44:11;;;;;;;39.50;30.35;;;6.90;75.50;;;;;;4984722;28;20050;-80
2021/12/24 09:46:41;;;;;;;45.22;32.42;;;6.90;75.30;;;;;;4955261;28;20039;-79
2021/12/24 09:49:08;;;;;;;41.20;32.30;;;6.90;75.10;;;;;;4954533;28;20480;-79
2021/12/24 09:51:40;;;;;;;43.15;33.50;;;7.00;75.20;;;;;;4966978;28;20414;-80
2021/12/24 09:54:11;;;;;;;45.53;33.08;;;7.00;75.10;;;;;;4956912;28;20484;-80
2021/12/24 09:56:37;;;;;;;43.80;32.08;;;7.00;74.90;;;;;;4965877;28;20047;-78
2021/12/24 09:59:03;;;;;;;40.47;31.90;;;7.00;74.90;;;;;;4956465;28;20043;-79
2021/12/24 10:01:33;;;;;;;49.20;35.55;;;7.00;75.00;;;;;;4957116;28;20053;-79
2021/12/24 10:04:07;;;;;;;39.28;30.42;;;7.00;74.80;;;;;;4958873;28;20046;-79
2021/12/24 10:06:33;;;;;;;48.55;36.45;;;7.10;75.30;;;;;;4957139;28;20031;-79
2021/12/24 10:09:08;;;;;;;40.33;31.67;;;7.00;74.30;;;;;;4958418;28;20035;-79
2021/12/24 10:12:04;;;;;;;37.30;27.02;;;7.10;74.80;;;;;;4960003;28;20118;-79
2021/12/24 10:14:40;;;;;;;41.25;30.17;;;7.20;77.90;;;;;;4955062;28;20439;-80
2021/12/24 10:17:20;;;;;;;39.70;30.85;;;7.20;74.50;;;;;;4956299;28;20494;-80
2021/12/24 10:19:47;;;;;;;;;;;7.20;75.10;;;;;;4958612;28;20126;-79
2021/12/24 10:22:13;;;;;;;48.75;34.92;;;7.30;75.10;;;;;;4961753;28;19925;-80
2021/12/24 10:24:39;;;;;;;46.63;35.03;;;7.30;74.40;;;;;;4959166;28;20063;-79
2021/12/24 10:27:05;;;;;;;40.38;31.85;;;7.20;74.30;;;;;;4959291;28;20082;-81
2021/12/24 10:29:33;;;;;;;40.65;31.17;;;7.20;75.00;;;;;;4957815;28;20035;-80
2021/12/24 10:32:09;;;;;;;42.28;32.03;;;7.20;74.70;;;;;;4958160;28;20381;-80
2021/12/24 10:34:36;;;;;;;43.47;32.80;;;7.30;74.20;;;;;;4952114;28;20041;-80
2021/12/24 10:37:22;;;;;;;38.58;28.60;;;7.30;73.50;;;;;;4960940;28;20071;-78
2021/12/24 10:39:53;;;;;;;42.08;32.05;;;7.20;73.70;;;;;;4959773;28;20122;-79
2021/12/24 10:42:32;;;;;;;37.53;29.73;;;7.20;73.50;;;;;;4986134;28;20448;-79
2021/12/24 10:45:01;;;;;;;37.05;28.42;;;7.30;73.80;;;;;;4956833;28;20502;-78
2021/12/24 10:47:33;;;;;;;41.95;31.63;;;7.30;73.50;;;;;;4968357;28;20511;-78
2021/12/24 10:55:21;;;;;;;40.13;30.65;;;7.50;73.50;;;;;;4963928;28;20408;-81
2021/12/24 10:57:51;;;;;;;40.08;29.85;;;7.50;73.60;;;;;;4954711;28;20048;-83
2021/12/24 11:00:32;;;;;;;42.97;31.13;;;7.50;73.50;;;;;;4954613;28;20047;-89
2021/12/24 11:03:04;;;;;;;38.30;28.98;;;7.50;73.70;;;;;;4954620;28;20039;-78
2021/12/24 11:05:42;;;;;;;42.65;31.95;;;7.50;73.60;;;;;;4956515;28;20038;-79
2021/12/24 11:08:15;;;;;;;39.53;30.00;;;7.50;73.70;;;;;;4958296;28;20090;-79
2021/12/24 11:10:54;;;;;;;50.17;37.20;;;7.50;73.70;;;;;;4954856;28;20042;-78
2021/12/24 11:13:39;;;;;;;50.92;26.65;;;7.50;73.30;;;;;;4959376;28;20395;-78
2021/12/24 11:16:17;;;;;;;42.10;30.85;;;7.40;76.80;;;;;;4957106;28;20037;-77
2021/12/24 11:18:46;;;;;;;42.45;31.27;;;7.60;75.40;;;;;;4953398;28;20089;-78
2021/12/24 11:21:19;;;;;;;42.42;31.10;;;7.60;73.80;;;;;;4952119;28;20503;-79
2021/12/24 11:23:45;;;;;;;39.75;28.63;;;7.60;73.70;;;;;;4964223;28;20039;-78
2021/12/24 11:26:14;;;;;;;38.60;29.90;;;7.70;73.20;;;;;;4967394;28;20034;-79
2021/12/24 11:28:41;;;;;;;39.80;29.35;;;7.60;73.30;;;;;;4956671;28;20035;-78
2021/12/24 11:31:15;;;;;;;38.53;29.02;;;7.60;73.30;;;;;;4953958;28;20122;-79
2021/12/24 11:33:43;;;;;;;43.55;33.20;;;7.60;73.20;;;;;;4951257;28;20047;-78
2021/12/24 11:36:11;;;;;;;39.40;30.77;;;7.70;73.40;;;;;;4957740;28;20050;-79
2021/12/24 11:38:40;;;;;;;44.88;31.80;;;7.60;73.20;;;;;;4966701;28;20093;-79
2021/12/24 11:41:12;;;;;;;44.80;32.53;;;7.70;73.30;;;;;;4953972;28;20031;-81
2021/12/24 11:43:41;;;;;;;40.90;31.70;;;7.70;72.80;;;;;;4959451;28;20035;-80
2021/12/24 11:46:09;;;;;;;42.70;32.67;;;7.70;72.80;;;;;;4969961;28;20070;-79
2021/12/24 11:48:44;;;;;;;34.67;23.42;;;7.80;73.40;;;;;;4954004;28;20037;-79
2021/12/24 11:51:18;;;;;;;40.65;26.17;;;8.00;80.90;;;;;;4955386;28;20043;-84
2021/12/24 11:53:44;;;;;;;51.22;37.17;;;8.20;79.00;;;;;;4953690;28;20480;-78
2021/12/24 11:56:13;;;;;;;46.03;33.65;;;8.40;73.90;;;;;;4972388;28;20047;-79
2021/12/24 11:58:51;;;;;;;44.25;32.95;;;8.40;73.00;;;;;;4960911;28;20484;-78
2021/12/24 12:01:27;;;;;;;40.33;31.08;;;8.30;72.80;;;;;;4964408;28;20493;-79
2021/12/24 12:03:59;;;;;;;39.47;31.48;;;8.40;73.10;;;;;;4978197;28;20378;-79
2021/12/24 12:06:25;;;;;;;41.65;30.83;;;8.40;72.80;;;;;;4960279;28;20034;-79
2021/12/24 12:08:53;;;;;;;42.88;31.20;;;8.40;72.50;;;;;;4968931;28;20039;-77
2021/12/24 12:11:21;;;;;;;44.05;33.92;;;8.30;72.40;;;;;;4967503;28;20054;-77
2021/12/24 12:14:07;;;;;;;39.42;30.70;;;8.30;71.40;;;;;;4972366;28;20050;-77
2021/12/24 12:16:39;;;;;;;40.78;31.33;;;8.30;72.00;;;;;;4954485;28;20499;-77
2021/12/24 12:19:42;;;;;;;42.22;32.05;;;8.30;71.60;;;;;;4973875;28;20506;-77
2021/12/24 12:22:43;;;;;;;38.58;29.65;;;8.20;71.40;;;;;;4958698;28;20050;-78
2021/12/24 12:25:29;;;;;;;38.40;30.23;;;8.20;71.50;;;;;;4973118;28;20476;-77
2021/12/24 12:28:01;;;;;;;40.35;29.65;;;8.30;71.50;;;;;;4968077;28;20045;-80
2021/12/24 12:30:30;;;;;;;37.25;28.67;;;8.20;71.30;;;;;;4961659;28;20046;-81
2021/12/24 12:33:08;;;;;;;37.15;29.67;;;8.20;71.30;;;;;;4974780;28;20091;-82
2021/12/24 12:35:44;;;;;;;41.00;30.02;;;8.20;71.40;;;;;;4979872;28;20046;-82
2021/12/24 12:38:35;;;;;;;37.25;29.50;;;8.20;71.50;;;;;;4974288;28;20031;-82
2021/12/24 12:41:31;;;;;;;39.50;29.70;;;8.20;71.50;;;;;;4968395;28;20043;-82
2021/12/24 12:43:58;;;;;;;40.03;30.25;;;8.20;71.50;;;;;;4963252;29;20043;-82
2021/12/24 12:46:31;;;;;;;45.33;33.50;;;8.30;71.70;;;;;;4969844;28;20011;-81
2021/12/24 12:49:03;;;;;;;43.55;31.92;;;8.30;71.40;;;;;;4966092;29;20554;-81
2021/12/24 12:51:58;;;;;;;36.05;28.33;;;8.20;71.50;;;;;;4959489;28;20058;-82
2021/12/24 12:54:29;;;;;;;34.03;28.05;;;8.20;71.70;;;;;;4964930;28;20066;-82
2021/12/24 12:57:30;;;;;;;39.75;29.90;;;8.20;71.80;;;;;;4960241;28;20070;-82
2021/12/24 13:00:08;;;;;;;39.65;31.25;;;8.20;71.80;;;;;;4931623;29;20070;-82
2021/12/24 13:03:06;;;;;;;41.15;31.15;;;8.20;71.40;;;;;;4957968;28;20046;-81
2021/12/24 13:05:38;;;;;;;41.17;30.38;;;8.10;71.80;;;;;;4956998;28;20122;-82
2021/12/24 13:08:22;;;;;;;40.33;30.83;;;8.10;72.00;;;;;;4955719;28;20039;-82
2021/12/24 13:11:02;;;;;;;40.38;30.65;;;8.10;71.90;;;;;;4964881;28;20047;-81
2021/12/24 13:13:28;;;;;;;41.03;31.35;;;8.10;71.70;;;;;;4952535;29;20050;-81
2021/12/24 13:15:54;;;;;;;39.97;31.38;;;8.10;71.80;;;;;;4962848;28;20043;-83
2021/12/24 13:18:28;;;;;;;41.83;29.85;;;8.10;71.70;;;;;;4954031;29;20047;-82
2021/12/24 13:22:27;;;;;;;39.72;29.60;;;8.10;72.80;;;;;;4957289;28;20047;-82
2021/12/24 13:23:42;;;;;;;41.90;30.35;;;8.10;73.20;;;;;;4967164;28;20483;-81
2021/12/24 13:26:19;;;;;;;40.33;31.33;;;8.20;72.70;;;;;;4955960;28;20047;-84
2021/12/24 13:28:56;;;;;;;40.95;30.60;;;8.20;72.30;;;;;;4958712;28;20035;-82
2021/12/24 13:31:22;;;;;;;44.95;33.28;;;8.20;72.00;;;;;;4960471;28;20278;-82
2021/12/24 13:33:48;;;;;;;42.30;31.35;;;8.20;72.10;;;;;;4955750;28;20499;-82
2021/12/24 13:36:14;;;;;;;41.45;32.35;;;8.20;72.10;;;;;;4957648;28;20038;-82
2021/12/24 13:38:39;;;;;;;39.60;31.17;;;8.10;72.30;;;;;;4958732;28;20129;-82
2021/12/24 13:41:05;;;;;;;42.38;31.98;;;8.10;72.20;;;;;;4955755;29;20097;-82
2021/12/24 13:43:36;;;;;;;44.25;33.90;;;8.10;72.60;;;;;;4955813;28;20043;-82
2021/12/24 13:46:08;;;;;;;41.22;31.42;;;8.10;72.70;;;;;;4956779;28;20384;-78
2021/12/24 13:48:49;;;;;;;37.42;30.13;;;8.10;73.20;;;;;;4951781;28;20043;-79
2021/12/24 13:54:38;;;;;;;41.97;31.88;;;8.00;73.10;;;;;;4954335;29;20078;-79
2021/12/24 13:56:51;;;;;;;39.65;31.20;;;8.10;73.50;;;;;;4945554;29;20404;-78
2021/12/24 13:59:23;;;;;;;40.63;31.77;;;8.00;73.40;;;;;;4955277;29;20043;-79
2021/12/24 14:01:49;;;;;;;43.08;32.72;;;8.00;73.60;;;;;;4986926;28;20039;-81
2021/12/24 14:04:17;;;;;;;43.05;33.50;;;8.00;73.90;;;;;;4953238;28;20122;-79
2021/12/24 14:06:46;;;;;;;44.35;34.42;;;7.90;74.10;;;;;;4958492;28;20045;-79
2021/12/24 14:09:19;;;;;;;42.72;32.92;;;7.90;74.30;;;;;;4967233;28;20238;-79
2021/12/24 14:11:48;;;;;;;41.72;32.40;;;7.90;74.30;;;;;;4952406;28;20467;-79
2021/12/24 14:14:20;;;;;;;43.33;32.92;;;7.90;74.50;;;;;;4952850;28;20051;-79
2021/12/24 14:20:06;;;;;;;43.33;33.10;;;8.00;74.50;;;;;;4952950;28;20050;-81
2021/12/24 14:22:34;;;;;;;43.47;32.17;;;8.00;74.60;;;;;;4952797;28;20051;-81
2021/12/24 14:25:10;;;;;;;43.90;32.83;;;8.00;74.60;;;;;;4953972;28;20039;-78
2021/12/24 14:27:41;;;;;;;42.88;33.45;;;7.90;74.60;;;;;;4986375;28;20440;-77
2021/12/24 14:30:08;;;;;;;40.58;32.20;;;7.90;74.70;;;;;;4955051;29;20491;-78
2021/12/24 14:32:39;;;;;;;44.15;33.30;;;7.80;74.90;;;;;;4955992;28;20043;-78
2021/12/24 14:35:21;;;;;;;43.63;33.85;;;7.90;75.10;;;;;;4955678;28;20043;-78